Time,TemperatureF,DewpointF,PressureIn,WindDirection,WindDirectionDegrees,WindSpeedMPH,WindSpeedGustMPH,Humidity,HourlyPrecipIn,Conditions,Clouds,dailyrainin,SoftwareType,DateUTC
2013-04-01 00:00:00,54.1,40.5,29.97,ENE,60,0.0,0.0,60,0.00,,,0.00,LWC2 V0.39 B123,2013-04-01 06:00:00,
2013-04-01 00:05:00,54.0,40.4,29.97,ENE,59,0.0,0.0,60,0.00,,,0.00,LWC2 V0.39 B123,2013-04-01 06:05:00,
2013-04-01 00:10:00,54.3,40.7,29.97,ENE,60,0.0,0.0,60,0.00,,,0.00,LWC2 V0.39 B123,2013-04-01 06:10:00,
2013-04-01 00:15:00,54.4,40.8,29.97,ENE,61,0.0,0.0,60,0.00,,,0.00,LWC2 V0.39 B123,2013-04-01 06:15:00,
2013-04-01 00:20:00,54.6,40.6,29.97,ENE,60,0.0,0.0,59,0.00,,,0.00,LWC2 V0.39 B123,2013-04-01 06:20:00,
2013-04-01 00:25:00,54.7,40.7,29.96,ENE,59,0.0,0.0,59,0.00,,,0.00,LWC2 V0.39 B123,2013-04-01 06:25:00,
2013-04-01 00:30:00,54.8,40.3,29.96,ENE,59,0.0,0.0,58,0.00,,,0.00,LWC2 V0.39 B123,2013-04-01 06:30:00,
2013-04-01 00:35:00,54.9,40.4,29.96,ENE,60,0.0,0.0,58,0.00,,,0.00,LWC2 V0.39 B123,2013-04-01 06:35:00,
2013-04-01 00:40:00,55.0,40.0,29.96,ENE,59,0.0,0.0,57,0.00,,,0.00,LWC2 V0.39 B123,2013-04-01 06:40:00,
2013-04-01 00:45:00,54.9,41.3,29.97,NNE,20,1.0,2.0,60,0.00,,,0.00,LWC2 V0.39 B123,2013-04-01 06:45:00,
2013-04-01 00:50:00,54.1,42.6,29.97,NNE,20,0.0,1.0,65,0.00,,,0.00,LWC2 V0.39 B123,2013-04-01 06:50:00,
2013-04-01 00:55:00,52.9,43.8,29.97,NNE,24,0.0,1.0,71,0.00,,,0.00,LWC2 V0.39 B123,2013-04-01 06:55:00,
2013-04-01 01:00:00,51.7,42.2,29.97,NNE,23,0.0,0.0,70,0.00,,,0.00,LWC2 V0.39 B123,2013-04-01 07:00:00,
2013-04-01 01:05:00,50.9,42.9,29.97,NNE,23,0.0,1.0,74,0.00,,,0.00,LWC2 V0.39 B123,2013-04-01 07:05:00,
2013-04-01 01:10:00,50.3,42.7,29.97,NNE,23,0.0,1.0,75,0.00,,,0.00,LWC2 V0.39 B123,2013-04-01 07:10:00,
2013-04-01 01:15:00,49.9,42.6,29.97,NNE,23,0.0,0.0,76,0.00,,,0.00,LWC2 V0.39 B123,2013-04-01 07:15:00,
2013-04-01 01:20:00,49.6,42.0,29.97,NNE,23,0.0,0.0,75,0.00,,,0.00,LWC2 V0.39 B123,2013-04-01 07:20:00,
2013-04-01 01:25:00,49.7,42.8,29.97,NNE,23,0.0,0.0,77,0.00,,,0.00,LWC2 V0.39 B123,2013-04-01 07:25:00,
2013-04-01 01:30:00,49.4,41.1,29.96,NNE,23,0.0,0.0,73,0.00,,,0.00,LWC2 V0.39 B123,2013-04-01 07:30:00,
2013-04-01 01:35:00,49.6,40.6,29.96,NNE,23,0.0,0.0,71,0.00,,,0.00,LWC2 V0.39 B123,2013-04-01 07:35:00,
2013-04-01 01:40:00,50.2,41.2,29.96,NNE,23,0.0,0.0,71,0.00,,,0.00,LWC2 V0.39 B123,2013-04-01 07:40:00,
2013-04-01 01:45:00,50.3,41.3,29.96,NNE,23,0.0,0.0,71,0.00,,,0.00,LWC2 V0.39 B123,2013-04-01 07:45:00,
2013-04-01 01:50:00,49.7,41.0,29.95,NNE,23,0.0,0.0,72,0.00,,,0.00,LWC2 V0.39 B123,2013-04-01 07:50:00,
2013-04-01 01:55:00,49.1,40.8,29.95,NNE,23,0.0,0.0,73,0.00,,,0.00,LWC2 V0.39 B123,2013-04-01 07:55:00,
2013-04-01 02:00:00,48.8,41.9,29.95,NNE,23,0.0,0.0,77,0.00,,,0.00,LWC2 V0.39 B123,2013-04-01 08:00:00,
2013-04-01 02:05:00,48.7,40.8,29.95,NE,44,0.0,0.0,74,0.00,,,0.00,LWC2 V0.39 B123,2013-04-01 08:05:00,
2013-04-01 02:10:00,49.1,41.5,29.95,ENE,78,0.0,0.0,75,0.00,,,0.00,LWC2 V0.39 B123,2013-04-01 08:10:00,
2013-04-01 02:15:00,49.1,41.9,29.96,ENE,78,0.0,0.0,76,0.00,,,0.00,LWC2 V0.39 B123,2013-04-01 08:15:00,
2013-04-01 02:20:00,49.1,42.5,29.96,ENE,77,0.0,0.0,78,0.00,,,0.00,LWC2 V0.39 B123,2013-04-01 08:20:00,
2013-04-01 02:25:00,48.9,42.3,29.96,ENE,78,0.0,0.0,78,0.00,,,0.00,LWC2 V0.39 B123,2013-04-01 08:25:00,
2013-04-01 02:30:00,48.6,42.1,29.96,ENE,78,0.0,0.0,78,0.00,,,0.00,LWC2 V0.39 B123,2013-04-01 08:30:00,
2013-04-01 02:35:00,48.3,42.4,29.96,ENE,78,0.0,0.0,80,0.00,,,0.00,LWC2 V0.39 B123,2013-04-01 08:35:00,
2013-04-01 02:40:00,48.0,42.1,29.96,ENE,78,0.0,0.0,80,0.00,,,0.00,LWC2 V0.39 B123,2013-04-01 08:40:00,
2013-04-01 02:45:00,47.8,42.6,29.96,ENE,77,0.0,0.0,82,0.00,,,0.00,LWC2 V0.39 B123,2013-04-01 08:45:00,
2013-04-01 02:50:00,47.6,43.0,29.96,ENE,78,0.0,0.0,84,0.00,,,0.00,LWC2 V0.39 B123,2013-04-01 08:50:00,
2013-04-01 02:55:00,47.5,43.2,29.96,ENE,77,0.0,0.0,85,0.00,,,0.00,LWC2 V0.39 B123,2013-04-01 08:55:00,
2013-04-01 03:00:00,47.6,42.7,29.96,ENE,77,0.0,0.0,83,0.00,,,0.00,LWC2 V0.39 B123,2013-04-01 09:00:00,
2013-04-01 03:05:00,48.0,42.5,29.96,ENE,78,0.0,0.0,81,0.00,,,0.00,LWC2 V0.39 B123,2013-04-01 09:05:00,
2013-04-01 03:10:00,48.3,42.4,29.96,ENE,78,0.0,0.0,80,0.00,,,0.00,LWC2 V0.39 B123,2013-04-01 09:10:00,
2013-04-01 03:15:00,48.5,41.6,29.97,ENE,78,0.0,0.0,77,0.00,,,0.00,LWC2 V0.39 B123,2013-04-01 09:15:00,
2013-04-01 03:20:00,48.6,42.1,29.97,ENE,77,0.0,0.0,78,0.00,,,0.00,LWC2 V0.39 B123,2013-04-01 09:20:00,
2013-04-01 03:25:00,48.3,42.1,29.97,ENE,75,0.0,0.0,79,0.00,,,0.00,LWC2 V0.39 B123,2013-04-01 09:25:00,
2013-04-01 03:30:00,48.2,42.3,29.97,ENE,75,0.0,0.0,80,0.00,,,0.00,LWC2 V0.39 B123,2013-04-01 09:30:00,
2013-04-01 03:35:00,48.2,42.3,29.98,ENE,75,0.0,0.0,80,0.00,,,0.00,LWC2 V0.39 B123,2013-04-01 09:35:00,
2013-04-01 03:40:00,47.9,42.0,29.98,ENE,75,0.0,0.0,80,0.00,,,0.00,LWC2 V0.39 B123,2013-04-01 09:40:00,
2013-04-01 03:45:00,47.0,41.8,29.99,ENE,75,1.0,2.0,82,0.00,,,0.00,LWC2 V0.39 B123,2013-04-01 09:45:00,
2013-04-01 03:50:00,46.8,42.2,29.99,ENE,75,0.0,1.0,84,0.00,,,0.00,LWC2 V0.39 B123,2013-04-01 09:50:00,
2013-04-01 03:55:00,46.6,42.0,29.99,ENE,75,0.0,0.0,84,0.00,,,0.00,LWC2 V0.39 B123,2013-04-01 09:55:00,
2013-04-01 04:00:00,46.4,41.8,29.99,ENE,75,0.0,0.0,84,0.00,,,0.00,LWC2 V0.39 B123,2013-04-01 10:00:00,
2013-04-01 04:05:00,46.2,42.2,29.99,ENE,75,0.0,0.0,86,0.00,,,0.00,LWC2 V0.39 B123,2013-04-01 10:05:00,
2013-04-01 04:10:00,46.5,43.1,30.00,ENE,75,0.0,0.0,88,0.00,,,0.00,LWC2 V0.39 B123,2013-04-01 10:10:00,
2013-04-01 04:15:00,45.8,42.2,30.00,ENE,75,0.0,1.0,87,0.00,,,0.00,LWC2 V0.39 B123,2013-04-01 10:15:00,
2013-04-01 04:20:00,45.5,41.9,30.00,ENE,75,1.0,1.0,87,0.00,,,0.00,LWC2 V0.39 B123,2013-04-01 10:20:00,
2013-04-01 04:25:00,45.5,42.2,30.00,ENE,75,0.0,0.0,88,0.00,,,0.00,LWC2 V0.39 B123,2013-04-01 10:25:00,
2013-04-01 04:30:00,45.8,43.0,30.01,ENE,75,1.0,1.0,90,0.00,,,0.00,LWC2 V0.39 B123,2013-04-01 10:30:00,
2013-04-01 04:35:00,46.0,43.2,30.01,ENE,76,1.0,1.0,90,0.00,,,0.00,LWC2 V0.39 B123,2013-04-01 10:35:00,
2013-04-01 04:40:00,46.0,43.2,30.01,ENE,76,1.0,1.0,90,0.00,,,0.00,LWC2 V0.39 B123,2013-04-01 10:40:00,
2013-04-01 04:45:00,46.3,43.5,30.01,ENE,76,1.0,1.0,90,0.00,,,0.00,LWC2 V0.39 B123,2013-04-01 10:45:00,
2013-04-01 04:50:00,46.3,43.5,30.00,East,79,0.0,1.0,90,0.00,,,0.00,LWC2 V0.39 B123,2013-04-01 10:50:00,
2013-04-01 04:55:00,46.5,43.4,30.01,East,79,1.0,1.0,89,0.00,,,0.00,LWC2 V0.39 B123,2013-04-01 10:55:00,
2013-04-01 05:00:00,46.4,43.3,30.01,East,79,1.0,1.0,89,0.00,,,0.00,LWC2 V0.39 B123,2013-04-01 11:00:00,
2013-04-01 05:05:00,46.3,43.2,30.01,East,79,0.0,0.0,89,0.00,,,0.00,LWC2 V0.39 B123,2013-04-01 11:05:00,
2013-04-01 05:10:00,46.4,43.6,30.01,East,79,0.0,1.0,90,0.00,,,0.00,LWC2 V0.39 B123,2013-04-01 11:10:00,
2013-04-01 05:15:00,46.3,43.2,30.01,East,79,1.0,1.0,89,0.00,,,0.00,LWC2 V0.39 B123,2013-04-01 11:15:00,
2013-04-01 05:20:00,45.7,42.6,30.02,East,79,0.0,1.0,89,0.00,,,0.00,LWC2 V0.39 B123,2013-04-01 11:20:00,
2013-04-01 05:25:00,45.6,42.8,30.02,ENE,78,0.0,1.0,90,0.00,,,0.00,LWC2 V0.39 B123,2013-04-01 11:25:00,
2013-04-01 05:30:00,45.6,43.1,30.02,East,79,0.0,0.0,91,0.00,,,0.00,LWC2 V0.39 B123,2013-04-01 11:30:00,
2013-04-01 05:35:00,45.7,43.2,30.03,ENE,78,1.0,2.0,91,0.00,,,0.00,LWC2 V0.39 B123,2013-04-01 11:35:00,
2013-04-01 05:40:00,45.8,43.3,30.03,ENE,78,0.0,0.0,91,0.00,,,0.00,LWC2 V0.39 B123,2013-04-01 11:40:00,
2013-04-01 05:45:00,45.6,42.8,30.03,ENE,78,1.0,1.0,90,0.00,,,0.00,LWC2 V0.39 B123,2013-04-01 11:45:00,
2013-04-01 05:50:00,45.1,42.3,30.03,East,79,0.0,0.0,90,0.00,,,0.00,LWC2 V0.39 B123,2013-04-01 11:50:00,
2013-04-01 05:55:00,44.7,42.2,30.04,East,79,0.0,0.0,91,0.00,,,0.00,LWC2 V0.39 B123,2013-04-01 11:55:00,
2013-04-01 06:00:00,44.4,41.9,30.04,East,80,0.0,0.0,91,0.00,,,0.00,LWC2 V0.39 B123,2013-04-01 12:00:00,
2013-04-01 06:05:00,44.3,41.8,30.04,East,80,0.0,0.0,91,0.00,,,0.00,LWC2 V0.39 B123,2013-04-01 12:05:00,
2013-04-01 06:10:00,44.4,41.9,30.05,East,82,0.0,0.0,91,0.00,,,0.00,LWC2 V0.39 B123,2013-04-01 12:10:00,
2013-04-01 06:15:00,44.7,42.2,30.05,East,87,0.0,1.0,91,0.00,,,0.00,LWC2 V0.39 B123,2013-04-01 12:15:00,
2013-04-01 06:20:00,44.8,42.3,30.05,North,354,1.0,1.0,91,0.00,,,0.00,LWC2 V0.39 B123,2013-04-01 12:20:00,
2013-04-01 06:25:00,45.2,42.4,30.05,North,354,0.0,1.0,90,0.00,,,0.00,LWC2 V0.39 B123,2013-04-01 12:25:00,
2013-04-01 06:30:00,46.2,42.8,30.06,NE,46,2.0,4.0,88,0.00,,,0.00,LWC2 V0.39 B123,2013-04-01 12:30:00,
2013-04-01 06:35:00,46.8,42.8,30.07,ENE,72,2.0,4.0,86,0.00,,,0.00,LWC2 V0.39 B123,2013-04-01 12:35:00,
2013-04-01 06:40:00,47.9,43.3,30.07,ENE,68,2.0,3.0,84,0.00,,,0.00,LWC2 V0.39 B123,2013-04-01 12:40:00,
2013-04-01 06:45:00,48.8,43.2,30.07,ENE,68,3.0,5.0,81,0.00,,,0.00,LWC2 V0.39 B123,2013-04-01 12:45:00,
2013-04-01 06:50:00,49.2,43.0,30.07,ENE,76,4.0,9.0,79,0.00,,,0.00,LWC2 V0.39 B123,2013-04-01 12:50:00,
2013-04-01 06:55:00,49.4,42.8,30.08,ENE,63,6.0,6.0,78,0.00,,,0.00,LWC2 V0.39 B123,2013-04-01 12:55:00,
2013-04-01 07:00:00,49.6,42.7,30.08,East,91,2.0,7.0,77,0.00,,,0.00,LWC2 V0.39 B123,2013-04-01 13:00:00,
2013-04-01 07:05:00,49.8,42.9,30.08,NE,43,4.0,7.0,77,0.00,,,0.00,LWC2 V0.39 B123,2013-04-01 13:05:00,
2013-04-01 07:10:00,49.7,42.4,30.09,NNE,32,5.0,8.0,76,0.00,,,0.00,LWC2 V0.39 B123,2013-04-01 13:10:00,
2013-04-01 07:15:00,49.8,42.5,30.09,ENE,64,5.0,6.0,76,0.00,,,0.00,LWC2 V0.39 B123,2013-04-01 13:15:00,
2013-04-01 07:20:00,49.7,42.4,30.09,ENE,64,3.0,4.0,76,0.00,,,0.00,LWC2 V0.39 B123,2013-04-01 13:20:00,
2013-04-01 07:25:00,49.7,42.8,30.10,East,98,4.0,9.0,77,0.00,,,0.00,LWC2 V0.39 B123,2013-04-01 13:25:00,
2013-04-01 07:30:00,49.9,43.0,30.10,ENE,62,2.0,7.0,77,0.00,,,0.00,LWC2 V0.39 B123,2013-04-01 13:30:00,
2013-04-01 07:35:00,50.1,43.2,30.10,ENE,65,3.0,7.0,77,0.00,,,0.00,LWC2 V0.39 B123,2013-04-01 13:35:00,
2013-04-01 07:40:00,50.1,42.8,30.10,ENE,60,6.0,9.0,76,0.00,,,0.00,LWC2 V0.39 B123,2013-04-01 13:40:00,
2013-04-01 07:45:00,50.2,42.9,30.10,East,86,4.0,9.0,76,0.00,,,0.00,LWC2 V0.39 B123,2013-04-01 13:45:00,
2013-04-01 07:50:00,50.2,42.6,30.11,ENE,70,3.0,5.0,75,0.00,,,0.00,LWC2 V0.39 B123,2013-04-01 13:50:00,
2013-04-01 07:55:00,50.5,42.5,30.11,NE,51,9.0,9.0,74,0.00,,,0.00,LWC2 V0.39 B123,2013-04-01 13:55:00,
2013-04-01 08:00:00,50.6,42.3,30.11,East,85,6.0,8.0,73,0.00,,,0.00,LWC2 V0.39 B123,2013-04-01 14:00:00,
2013-04-01 08:05:00,51.3,42.9,30.11,East,101,4.0,9.0,73,0.00,,,0.00,LWC2 V0.39 B123,2013-04-01 14:05:00,
2013-04-01 08:10:00,51.2,41.8,30.11,East,98,7.0,11.0,70,0.00,,,0.00,LWC2 V0.39 B123,2013-04-01 14:10:00,
2013-04-01 08:15:00,51.1,41.3,30.12,ENE,69,6.0,8.0,69,0.00,,,0.00,LWC2 V0.39 B123,2013-04-01 14:15:00,
2013-04-01 08:20:00,51.2,41.8,30.12,NE,56,5.0,8.0,70,0.00,,,0.00,LWC2 V0.39 B123,2013-04-01 14:20:00,
2013-04-01 08:25:00,51.2,41.4,30.12,ENE,65,5.0,7.0,69,0.00,,,0.00,LWC2 V0.39 B123,2013-04-01 14:25:00,
2013-04-01 08:30:00,51.4,41.6,30.12,East,87,3.0,8.0,69,0.00,,,0.00,LWC2 V0.39 B123,2013-04-01 14:30:00,
2013-04-01 08:35:00,51.5,41.3,30.12,ENE,72,4.0,8.0,68,0.00,,,0.00,LWC2 V0.39 B123,2013-04-01 14:35:00,
2013-04-01 08:40:00,51.6,41.0,30.12,ENE,72,4.0,10.0,67,0.00,,,0.00,LWC2 V0.39 B123,2013-04-01 14:40:00,
2013-04-01 08:45:00,51.6,41.0,30.12,ENE,60,7.0,7.0,67,0.00,,,0.00,LWC2 V0.39 B123,2013-04-01 14:45:00,
2013-04-01 08:50:00,51.6,40.2,30.12,ENE,78,5.0,10.0,65,0.00,,,0.00,LWC2 V0.39 B123,2013-04-01 14:50:00,
2013-04-01 08:55:00,51.6,40.6,30.13,ENE,72,4.0,10.0,66,0.00,,,0.00,LWC2 V0.39 B123,2013-04-01 14:55:00,
2013-04-01 09:00:00,51.7,41.1,30.13,ENE,60,6.0,12.0,67,0.00,,,0.00,LWC2 V0.39 B123,2013-04-01 15:00:00,
2013-04-01 09:05:00,51.7,41.1,30.14,ENE,67,6.0,7.0,67,0.00,,,0.00,LWC2 V0.39 B123,2013-04-01 15:05:00,
2013-04-01 09:10:00,52.0,40.6,30.14,East,81,4.0,8.0,65,0.00,,,0.00,LWC2 V0.39 B123,2013-04-01 15:10:00,
2013-04-01 09:15:00,52.1,41.1,30.14,ENE,75,5.0,7.0,66,0.00,,,0.00,LWC2 V0.39 B123,2013-04-01 15:15:00,
2013-04-01 09:20:00,52.6,41.2,30.14,East,94,4.0,9.0,65,0.00,,,0.00,LWC2 V0.39 B123,2013-04-01 15:20:00,
2013-04-01 09:25:00,52.8,41.4,30.13,ENE,71,6.0,10.0,65,0.00,,,0.00,LWC2 V0.39 B123,2013-04-01 15:25:00,
2013-04-01 09:30:00,53.0,41.6,30.14,NE,53,5.0,9.0,65,0.00,,,0.00,LWC2 V0.39 B123,2013-04-01 15:30:00,
2013-04-01 09:35:00,53.2,41.7,30.14,ENE,73,7.0,7.0,65,0.00,,,0.00,LWC2 V0.39 B123,2013-04-01 15:35:00,
2013-04-01 09:40:00,53.8,42.3,30.14,East,79,7.0,11.0,65,0.00,,,0.00,LWC2 V0.39 B123,2013-04-01 15:40:00,
2013-04-01 09:45:00,53.8,41.9,30.14,NE,39,7.0,9.0,64,0.00,,,0.00,LWC2 V0.39 B123,2013-04-01 15:45:00,
2013-04-01 09:50:00,54.4,42.1,30.14,NE,51,4.0,8.0,63,0.00,,,0.00,LWC2 V0.39 B123,2013-04-01 15:50:00,
2013-04-01 09:55:00,55.0,42.2,30.14,ENE,58,3.0,5.0,62,0.00,,,0.00,LWC2 V0.39 B123,2013-04-01 15:55:00,
2013-04-01 10:00:00,55.5,41.4,30.14,East,83,5.0,9.0,59,0.00,,,0.00,LWC2 V0.39 B123,2013-04-01 16:00:00,
2013-04-01 10:05:00,55.2,42.0,30.15,ENE,68,3.0,7.0,61,0.00,,,0.00,LWC2 V0.39 B123,2013-04-01 16:05:00,
2013-04-01 10:10:00,55.8,42.6,30.15,NE,45,5.0,5.0,61,0.00,,,0.00,LWC2 V0.39 B123,2013-04-01 16:10:00,
2013-04-01 10:15:00,55.9,41.8,30.14,ENE,68,5.0,7.0,59,0.00,,,0.00,LWC2 V0.39 B123,2013-04-01 16:15:00,
2013-04-01 10:20:00,56.2,42.5,30.14,NE,44,6.0,10.0,60,0.00,,,0.00,LWC2 V0.39 B123,2013-04-01 16:20:00,
2013-04-01 10:25:00,56.0,41.9,30.14,ENE,75,4.0,8.0,59,0.00,,,0.00,LWC2 V0.39 B123,2013-04-01 16:25:00,
2013-04-01 10:31:00,56.8,42.6,30.13,NE,53,3.0,6.0,59,0.00,,,0.00,LWC2 V0.39 B123,2013-04-01 16:31:00,
2013-04-01 10:37:00,57.1,42.0,30.13,SE,141,5.0,10.0,57,0.00,,,0.00,LWC2 V0.39 B123,2013-04-01 16:37:00,
2013-04-01 10:42:00,57.4,41.8,30.13,ENE,63,5.0,8.0,56,0.00,,,0.00,LWC2 V0.39 B123,2013-04-01 16:42:00,
2013-04-01 10:47:00,57.5,41.5,30.14,East,81,4.0,10.0,55,0.00,,,0.00,LWC2 V0.39 B123,2013-04-01 16:47:00,
2013-04-01 10:52:00,57.4,41.4,30.14,East,101,4.0,9.0,55,0.00,,,0.00,LWC2 V0.39 B123,2013-04-01 16:52:00,
2013-04-01 10:57:00,57.6,42.0,30.13,ENE,75,6.0,10.0,56,0.00,,,0.00,LWC2 V0.39 B123,2013-04-01 16:57:00,
2013-04-01 11:02:00,57.1,41.6,30.13,ESE,108,5.0,9.0,56,0.00,,,0.00,LWC2 V0.39 B123,2013-04-01 17:02:00,
2013-04-01 11:07:00,57.6,42.0,30.13,East,101,6.0,11.0,56,0.00,,,0.00,LWC2 V0.39 B123,2013-04-01 17:07:00,
2013-04-01 11:13:00,57.6,42.0,30.13,ESE,114,3.0,10.0,56,0.00,,,0.00,LWC2 V0.39 B123,2013-04-01 17:13:00,
2013-04-01 11:18:00,57.6,42.0,30.13,NE,56,5.0,11.0,56,0.00,,,0.00,LWC2 V0.39 B123,2013-04-01 17:18:00,
2013-04-01 11:23:00,58.0,41.9,30.13,ENE,70,7.0,8.0,55,0.00,,,0.00,LWC2 V0.39 B123,2013-04-01 17:23:00,
2013-04-01 11:28:00,57.4,41.8,30.13,East,83,8.0,8.0,56,0.00,,,0.00,LWC2 V0.39 B123,2013-04-01 17:28:00,
2013-04-01 11:33:00,57.3,42.2,30.14,East,94,2.0,8.0,57,0.00,,,0.00,LWC2 V0.39 B123,2013-04-01 17:33:00,
2013-04-01 11:38:00,57.7,42.1,30.14,East,82,2.0,8.0,56,0.00,,,0.00,LWC2 V0.39 B123,2013-04-01 17:38:00,
2013-04-01 11:43:00,57.7,42.6,30.14,ENE,67,8.0,8.0,57,0.00,,,0.00,LWC2 V0.39 B123,2013-04-01 17:43:00,
2013-04-01 11:48:00,58.1,42.5,30.14,ENE,66,4.0,10.0,56,0.00,,,0.00,LWC2 V0.39 B123,2013-04-01 17:48:00,
2013-04-01 11:53:00,58.2,42.1,30.15,East,86,5.0,5.0,55,0.00,,,0.00,LWC2 V0.39 B123,2013-04-01 17:53:00,
2013-04-01 11:58:00,58.5,42.4,30.15,East,96,3.0,8.0,55,0.00,,,0.00,LWC2 V0.39 B123,2013-04-01 17:58:00,
2013-04-01 12:03:00,58.8,42.7,30.14,East,99,4.0,9.0,55,0.00,,,0.00,LWC2 V0.39 B123,2013-04-01 18:03:00,
2013-04-01 12:08:00,58.8,43.1,30.14,ENE,68,4.0,10.0,56,0.00,,,0.00,LWC2 V0.39 B123,2013-04-01 18:08:00,
2013-04-01 12:13:00,58.6,42.5,30.14,ENE,72,3.0,10.0,55,0.00,,,0.00,LWC2 V0.39 B123,2013-04-01 18:13:00,
2013-04-01 12:18:00,58.7,42.6,30.13,ENE,77,7.0,11.0,55,0.00,,,0.00,LWC2 V0.39 B123,2013-04-01 18:18:00,
2013-04-01 12:23:00,59.0,43.3,30.13,East,84,4.0,11.0,56,0.00,,,0.00,LWC2 V0.39 B123,2013-04-01 18:23:00,
2013-04-01 12:28:00,59.0,43.3,30.12,North,359,7.0,10.0,56,0.00,,,0.00,LWC2 V0.39 B123,2013-04-01 18:28:00,
2013-04-01 12:33:00,59.1,42.9,30.12,ENE,61,6.0,9.0,55,0.00,,,0.00,LWC2 V0.39 B123,2013-04-01 18:33:00,
2013-04-01 12:38:00,59.0,43.3,30.13,East,82,5.0,11.0,56,0.00,,,0.00,LWC2 V0.39 B123,2013-04-01 18:38:00,
2013-04-01 12:43:00,58.8,43.1,30.13,NE,42,6.0,11.0,56,0.00,,,0.00,LWC2 V0.39 B123,2013-04-01 18:43:00,
2013-04-01 12:48:00,58.8,43.1,30.13,NNE,29,4.0,13.0,56,0.00,,,0.00,LWC2 V0.39 B123,2013-04-01 18:48:00,
2013-04-01 12:53:00,58.7,43.0,30.14,ENE,77,3.0,8.0,56,0.00,,,0.00,LWC2 V0.39 B123,2013-04-01 18:53:00,
2013-04-01 12:58:00,58.9,43.2,30.15,ENE,68,6.0,10.0,56,0.00,,,0.00,LWC2 V0.39 B123,2013-04-01 18:58:00,
2013-04-01 13:03:00,59.7,44.0,30.14,NNE,29,5.0,8.0,56,0.00,,,0.00,LWC2 V0.39 B123,2013-04-01 19:03:00,
2013-04-01 13:08:00,60.7,44.0,30.14,ESE,115,6.0,9.0,54,0.00,,,0.00,LWC2 V0.39 B123,2013-04-01 19:08:00,
2013-04-01 13:13:00,60.9,43.7,30.14,ENE,62,3.0,8.0,53,0.00,,,0.00,LWC2 V0.39 B123,2013-04-01 19:13:00,
2013-04-01 13:18:00,61.7,44.4,30.14,East,91,6.0,8.0,53,0.00,,,0.00,LWC2 V0.39 B123,2013-04-01 19:18:00,
2013-04-01 13:23:00,61.5,44.2,30.13,ENE,78,5.0,7.0,53,0.00,,,0.00,LWC2 V0.39 B123,2013-04-01 19:23:00,
2013-04-01 13:28:00,61.0,43.7,30.14,ENE,68,5.0,7.0,53,0.00,,,0.00,LWC2 V0.39 B123,2013-04-01 19:28:00,
2013-04-01 13:33:00,60.0,43.3,30.13,ENE,77,4.0,7.0,54,0.00,,,0.00,LWC2 V0.39 B123,2013-04-01 19:33:00,
2013-04-01 13:38:00,59.1,42.9,30.13,ENE,58,6.0,10.0,55,0.00,,,0.00,LWC2 V0.39 B123,2013-04-01 19:38:00,
2013-04-01 13:43:00,57.6,42.5,30.13,ESE,121,3.0,9.0,57,0.00,,,0.00,LWC2 V0.39 B123,2013-04-01 19:43:00,
2013-04-01 13:48:00,57.1,42.9,30.14,ENE,60,4.0,10.0,59,0.00,,,0.00,LWC2 V0.39 B123,2013-04-01 19:48:00,
2013-04-01 13:53:00,56.2,42.5,30.13,East,89,6.0,12.0,60,0.00,,,0.00,LWC2 V0.39 B123,2013-04-01 19:53:00,
2013-04-01 13:58:00,55.8,42.6,30.14,ENE,60,4.0,10.0,61,0.00,,,0.00,LWC2 V0.39 B123,2013-04-01 19:58:00,
2013-04-01 14:03:00,55.7,42.0,30.13,East,79,7.0,8.0,60,0.00,,,0.00,LWC2 V0.39 B123,2013-04-01 20:03:00,
2013-04-01 14:08:00,55.3,42.1,30.13,East,96,5.0,6.0,61,0.00,,,0.00,LWC2 V0.39 B123,2013-04-01 20:08:00,
2013-04-01 14:13:00,55.4,42.6,30.12,ENE,73,6.0,10.0,62,0.00,,,0.00,LWC2 V0.39 B123,2013-04-01 20:13:00,
2013-04-01 14:18:00,55.5,42.3,30.12,East,86,3.0,10.0,61,0.00,,,0.00,LWC2 V0.39 B123,2013-04-01 20:18:00,
2013-04-01 14:23:00,56.1,42.8,30.12,ESE,105,7.0,8.0,61,0.00,,,0.00,LWC2 V0.39 B123,2013-04-01 20:23:00,
2013-04-01 14:29:00,56.0,42.7,30.12,East,81,5.0,6.0,61,0.00,,,0.00,LWC2 V0.39 B123,2013-04-01 20:29:00,
2013-04-01 14:34:00,55.5,42.3,30.13,East,79,6.0,7.0,61,0.00,,,0.00,LWC2 V0.39 B123,2013-04-01 20:34:00,
2013-04-01 14:39:00,55.4,42.6,30.13,NE,34,6.0,11.0,62,0.00,,,0.00,LWC2 V0.39 B123,2013-04-01 20:39:00,
2013-04-01 14:44:00,55.5,42.3,30.13,ENE,64,7.0,10.0,61,0.00,,,0.00,LWC2 V0.39 B123,2013-04-01 20:44:00,
2013-04-01 14:49:00,55.1,41.9,30.13,ENE,64,5.0,10.0,61,0.00,,,0.00,LWC2 V0.39 B123,2013-04-01 20:49:00,
2013-04-01 14:54:00,55.0,41.8,30.13,ENE,70,8.0,10.0,61,0.00,,,0.00,LWC2 V0.39 B123,2013-04-01 20:54:00,
2013-04-01 14:59:00,54.9,42.5,30.12,SE,131,4.0,7.0,63,0.00,,,0.00,LWC2 V0.39 B123,2013-04-01 20:59:00,
2013-04-01 15:05:00,55.2,42.4,30.12,NE,55,6.0,10.0,62,0.00,,,0.00,LWC2 V0.39 B123,2013-04-01 21:05:00,
2013-04-01 15:10:00,55.3,42.5,30.12,ENE,77,7.0,10.0,62,0.00,,,0.00,LWC2 V0.39 B123,2013-04-01 21:10:00,
2013-04-01 15:15:00,55.6,42.4,30.12,ENE,64,4.0,10.0,61,0.00,,,0.00,LWC2 V0.39 B123,2013-04-01 21:15:00,
2013-04-01 15:21:00,55.7,42.5,30.12,East,79,6.0,8.0,61,0.00,,,0.00,LWC2 V0.39 B123,2013-04-01 21:21:00,
2013-04-01 15:26:00,55.3,42.5,30.12,NE,48,6.0,7.0,62,0.00,,,0.00,LWC2 V0.39 B123,2013-04-01 21:26:00,
2013-04-01 15:32:00,55.0,42.2,30.12,ENE,77,6.0,11.0,62,0.00,,,0.00,LWC2 V0.39 B123,2013-04-01 21:32:00,
2013-04-01 15:37:00,54.5,42.2,30.12,NE,46,5.0,10.0,63,0.00,,,0.00,LWC2 V0.39 B123,2013-04-01 21:37:00,
2013-04-01 15:42:00,54.3,41.6,30.12,ENE,76,4.0,11.0,62,0.00,,,0.00,LWC2 V0.39 B123,2013-04-01 21:42:00,
2013-04-01 15:47:00,54.1,41.8,30.12,East,89,5.0,9.0,63,0.00,,,0.00,LWC2 V0.39 B123,2013-04-01 21:47:00,
2013-04-01 15:52:00,53.8,41.5,30.12,NNE,15,6.0,11.0,63,0.00,,,0.00,LWC2 V0.39 B123,2013-04-01 21:52:00,
2013-04-01 15:57:00,53.7,41.8,30.12,East,86,3.0,11.0,64,0.00,,,0.00,LWC2 V0.39 B123,2013-04-01 21:57:00,
2013-04-01 16:02:00,53.5,41.2,30.11,East,84,4.0,10.0,63,0.00,,,0.00,LWC2 V0.39 B123,2013-04-01 22:02:00,
2013-04-01 16:07:00,53.3,41.0,30.11,East,79,8.0,13.0,63,0.00,,,0.00,LWC2 V0.39 B123,2013-04-01 22:07:00,
2013-04-01 16:12:00,52.9,41.1,30.11,East,82,4.0,11.0,64,0.00,,,0.00,LWC2 V0.39 B123,2013-04-01 22:12:00,
2013-04-01 16:17:00,52.7,41.3,30.10,East,98,6.0,14.0,65,0.00,,,0.00,LWC2 V0.39 B123,2013-04-01 22:17:00,
2013-04-01 16:22:00,52.6,41.6,30.10,NE,53,7.0,9.0,66,0.00,,,0.00,LWC2 V0.39 B123,2013-04-01 22:22:00,
2013-04-01 16:27:00,53.2,41.7,30.09,East,83,6.0,11.0,65,0.00,,,0.00,LWC2 V0.39 B123,2013-04-01 22:27:00,
2013-04-01 16:32:00,52.6,41.2,30.10,ENE,68,6.0,12.0,65,0.00,,,0.00,LWC2 V0.39 B123,2013-04-01 22:32:00,
2013-04-01 16:37:00,52.6,41.6,30.09,NE,55,5.0,7.0,66,0.00,,,0.00,LWC2 V0.39 B123,2013-04-01 22:37:00,
2013-04-01 16:42:00,52.7,41.3,30.09,ENE,63,8.0,13.0,65,0.00,,,0.00,LWC2 V0.39 B123,2013-04-01 22:42:00,
2013-04-01 16:47:00,52.7,41.7,30.10,ENE,60,12.0,12.0,66,0.00,,,0.00,LWC2 V0.39 B123,2013-04-01 22:47:00,
2013-04-01 16:52:00,52.6,41.6,30.10,East,82,4.0,8.0,66,0.00,,,0.00,LWC2 V0.39 B123,2013-04-01 22:52:00,
2013-04-01 16:57:00,52.5,41.5,30.10,ENE,68,6.0,10.0,66,0.00,,,0.00,LWC2 V0.39 B123,2013-04-01 22:57:00,
2013-04-01 17:02:00,52.6,41.2,30.11,ENE,72,6.0,10.0,65,0.00,,,0.00,LWC2 V0.39 B123,2013-04-01 23:02:00,
2013-04-01 17:07:00,52.4,40.6,30.11,ENE,70,5.0,11.0,64,0.00,,,0.00,LWC2 V0.39 B123,2013-04-01 23:07:00,
2013-04-01 17:12:00,52.1,40.7,30.11,ENE,78,6.0,6.0,65,0.00,,,0.00,LWC2 V0.39 B123,2013-04-01 23:12:00,
2013-04-01 17:17:00,52.0,41.0,30.11,ENE,76,6.0,14.0,66,0.00,,,0.00,LWC2 V0.39 B123,2013-04-01 23:17:00,
2013-04-01 17:22:00,51.4,40.8,30.11,ENE,66,5.0,8.0,67,0.00,,,0.00,LWC2 V0.39 B123,2013-04-01 23:22:00,
2013-04-01 17:27:00,50.8,40.2,30.10,East,82,11.0,12.0,67,0.00,,,0.00,LWC2 V0.39 B123,2013-04-01 23:27:00,
2013-04-01 17:32:00,50.4,40.6,30.09,ESE,108,5.0,7.0,69,0.00,,,0.00,LWC2 V0.39 B123,2013-04-01 23:32:00,
2013-04-01 17:37:00,50.2,40.8,30.09,ENE,61,4.0,9.0,70,0.00,,,0.00,LWC2 V0.39 B123,2013-04-01 23:37:00,
2013-04-01 17:42:00,50.1,41.1,30.10,NNE,31,5.0,13.0,71,0.00,,,0.00,LWC2 V0.39 B123,2013-04-01 23:42:00,
2013-04-01 17:47:00,49.6,40.6,30.10,ENE,76,7.0,9.0,71,0.00,,,0.00,LWC2 V0.39 B123,2013-04-01 23:47:00,
2013-04-01 17:52:00,49.1,40.1,30.10,ENE,73,4.0,10.0,71,0.00,,,0.00,LWC2 V0.39 B123,2013-04-01 23:52:00,
2013-04-01 17:57:00,48.5,39.9,30.10,NE,46,9.0,11.0,72,0.00,,,0.00,LWC2 V0.39 B123,2013-04-01 23:57:00,
2013-04-01 18:02:00,48.2,40.0,30.11,ENE,75,6.0,10.0,73,0.00,,,0.00,LWC2 V0.39 B123,2013-04-02 00:02:00,
2013-04-01 18:08:00,48.0,40.1,30.12,NE,55,10.0,10.0,74,0.00,,,0.00,LWC2 V0.39 B123,2013-04-02 00:08:00,
2013-04-01 18:13:00,47.7,39.8,30.12,East,80,7.0,7.0,74,0.00,,,0.00,LWC2 V0.39 B123,2013-04-02 00:13:00,
2013-04-01 18:18:00,47.5,39.6,30.12,East,89,4.0,7.0,74,0.00,,,0.00,LWC2 V0.39 B123,2013-04-02 00:18:00,
2013-04-01 18:23:00,47.4,39.2,30.13,ENE,70,5.0,9.0,73,0.00,,,0.00,LWC2 V0.39 B123,2013-04-02 00:23:00,
2013-04-01 18:28:00,47.3,39.1,30.13,East,79,6.0,7.0,73,0.00,,,0.00,LWC2 V0.39 B123,2013-04-02 00:28:00,
2013-04-01 18:34:00,47.1,38.9,30.14,ENE,67,3.0,6.0,73,0.00,,,0.00,LWC2 V0.39 B123,2013-04-02 00:34:00,
2013-04-01 18:40:00,47.1,38.9,30.15,NE,48,3.0,8.0,73,0.00,,,0.00,LWC2 V0.39 B123,2013-04-02 00:40:00,
2013-04-01 18:45:00,46.9,38.4,30.13,ENE,74,3.0,9.0,72,0.00,,,0.00,LWC2 V0.39 B123,2013-04-02 00:45:00,
2013-04-01 18:50:00,46.8,38.3,30.14,ENE,74,6.0,7.0,72,0.00,,,0.00,LWC2 V0.39 B123,2013-04-02 00:50:00,
2013-04-01 18:55:00,46.7,38.2,30.14,East,96,3.0,7.0,72,0.00,,,0.00,LWC2 V0.39 B123,2013-04-02 00:55:00,
2013-04-01 19:00:00,46.5,37.3,30.13,ENE,75,4.0,10.0,70,0.00,,,0.00,LWC2 V0.39 B123,2013-04-02 01:00:00,
2013-04-01 19:05:00,46.4,37.2,30.14,East,94,3.0,9.0,70,0.00,,,0.00,LWC2 V0.39 B123,2013-04-02 01:05:00,
2013-04-01 19:10:00,46.4,36.8,30.13,East,79,5.0,9.0,69,0.00,,,0.00,LWC2 V0.39 B123,2013-04-02 01:10:00,
2013-04-01 19:15:00,46.3,37.1,30.13,East,82,4.0,7.0,70,0.00,,,0.00,LWC2 V0.39 B123,2013-04-02 01:15:00,
2013-04-01 19:20:00,46.2,37.0,30.12,ENE,77,3.0,8.0,70,0.00,,,0.00,LWC2 V0.39 B123,2013-04-02 01:20:00,
2013-04-01 19:25:00,46.1,37.2,30.13,ENE,63,5.0,7.0,71,0.00,,,0.00,LWC2 V0.39 B123,2013-04-02 01:25:00,
2013-04-01 19:30:00,46.1,37.6,30.13,ENE,66,4.0,7.0,72,0.00,,,0.00,LWC2 V0.39 B123,2013-04-02 01:30:00,
2013-04-01 19:35:00,46.0,37.5,30.14,ENE,77,3.0,5.0,72,0.00,,,0.00,LWC2 V0.39 B123,2013-04-02 01:35:00,
2013-04-01 19:40:00,45.8,36.9,30.14,NE,46,4.0,10.0,71,0.00,,,0.00,LWC2 V0.39 B123,2013-04-02 01:40:00,
2013-04-01 19:45:00,45.8,36.9,30.15,East,80,6.0,7.0,71,0.00,,,0.00,LWC2 V0.39 B123,2013-04-02 01:45:00,
2013-04-01 19:50:00,45.8,36.6,30.13,East,82,4.0,6.0,70,0.00,,,0.00,LWC2 V0.39 B123,2013-04-02 01:50:00,
2013-04-01 19:55:00,45.8,36.2,30.13,NE,53,9.0,12.0,69,0.00,,,0.00,LWC2 V0.39 B123,2013-04-02 01:55:00,
2013-04-01 20:00:00,45.7,35.8,30.14,East,85,6.0,8.0,68,0.00,,,0.00,LWC2 V0.39 B123,2013-04-02 02:00:00,
2013-04-01 20:05:00,45.6,35.3,30.14,East,82,5.0,10.0,67,0.00,,,0.00,LWC2 V0.39 B123,2013-04-02 02:05:00,
2013-04-01 20:10:00,45.5,35.2,30.13,East,90,6.0,10.0,67,0.00,,,0.00,LWC2 V0.39 B123,2013-04-02 02:10:00,
2013-04-01 20:15:00,45.4,35.1,30.12,ENE,70,5.0,9.0,67,0.00,,,0.00,LWC2 V0.39 B123,2013-04-02 02:15:00,
2013-04-01 20:20:00,45.3,35.0,30.12,East,97,6.0,10.0,67,0.00,,,0.00,LWC2 V0.39 B123,2013-04-02 02:20:00,
2013-04-01 20:25:00,45.2,34.9,30.13,ENE,69,5.0,8.0,67,0.00,,,0.00,LWC2 V0.39 B123,2013-04-02 02:25:00,
2013-04-01 20:30:00,45.1,34.4,30.14,ENE,75,5.0,8.0,66,0.00,,,0.00,LWC2 V0.39 B123,2013-04-02 02:30:00,
2013-04-01 20:35:00,45.1,34.4,30.14,ENE,64,5.0,9.0,66,0.00,,,0.00,LWC2 V0.39 B123,2013-04-02 02:35:00,
2013-04-01 20:40:00,45.1,34.0,30.14,ESE,110,2.0,12.0,65,0.00,,,0.00,LWC2 V0.39 B123,2013-04-02 02:40:00,
2013-04-01 20:45:00,45.1,34.4,30.15,ENE,65,4.0,6.0,66,0.00,,,0.00,LWC2 V0.39 B123,2013-04-02 02:45:00,
2013-04-01 20:50:00,45.2,34.9,30.15,East,79,4.0,6.0,67,0.00,,,0.00,LWC2 V0.39 B123,2013-04-02 02:50:00,
2013-04-01 20:55:00,45.1,33.7,30.15,NE,44,4.0,12.0,64,0.00,,,0.00,LWC2 V0.39 B123,2013-04-02 02:55:00,
2013-04-01 21:00:00,45.0,33.2,30.15,East,91,5.0,11.0,63,0.00,,,0.00,LWC2 V0.39 B123,2013-04-02 03:00:00,
2013-04-01 21:05:00,44.9,33.1,30.15,ENE,74,6.0,9.0,63,0.00,,,0.00,LWC2 V0.39 B123,2013-04-02 03:05:00,
2013-04-01 21:10:00,44.8,33.0,30.15,ENE,71,5.0,11.0,63,0.00,,,0.00,LWC2 V0.39 B123,2013-04-02 03:10:00,
2013-04-01 21:15:00,44.8,33.0,30.15,East,84,5.0,11.0,63,0.00,,,0.00,LWC2 V0.39 B123,2013-04-02 03:15:00,
2013-04-01 21:20:00,44.7,33.3,30.15,East,88,4.0,7.0,64,0.00,,,0.00,LWC2 V0.39 B123,2013-04-02 03:20:00,
2013-04-01 21:25:00,44.6,32.8,30.16,ENE,78,5.0,10.0,63,0.00,,,0.00,LWC2 V0.39 B123,2013-04-02 03:25:00,
2013-04-01 21:30:00,44.6,32.8,30.15,ENE,77,5.0,10.0,63,0.00,,,0.00,LWC2 V0.39 B123,2013-04-02 03:30:00,
2013-04-01 21:35:00,44.6,32.4,30.16,East,84,7.0,11.0,62,0.00,,,0.00,LWC2 V0.39 B123,2013-04-02 03:35:00,
2013-04-01 21:40:00,44.5,32.7,30.16,ENE,74,4.0,7.0,63,0.00,,,0.00,LWC2 V0.39 B123,2013-04-02 03:40:00,
2013-04-01 21:45:00,44.5,32.3,30.15,ENE,69,6.0,12.0,62,0.00,,,0.00,LWC2 V0.39 B123,2013-04-02 03:45:00,
2013-04-01 21:50:00,44.4,32.2,30.15,ENE,61,5.0,12.0,62,0.00,,,0.00,LWC2 V0.39 B123,2013-04-02 03:50:00,
2013-04-01 21:55:00,44.4,33.0,30.16,ENE,64,3.0,6.0,64,0.00,,,0.00,LWC2 V0.39 B123,2013-04-02 03:55:00,
2013-04-01 22:00:00,44.4,32.6,30.15,ENE,65,6.0,9.0,63,0.00,,,0.00,LWC2 V0.39 B123,2013-04-02 04:00:00,
2013-04-01 22:01:00,44.4,32.6,30.15,ENE,78,6.0,10.0,63,0.00,,,0.00,LWC2 V0.39 B123,2013-04-02 04:01:00,
2013-04-01 22:02:00,44.3,32.5,30.15,East,82,5.0,10.0,63,0.00,,,0.00,LWC2 V0.39 B123,2013-04-02 04:02:00,
2013-04-01 22:04:00,44.3,32.5,30.15,SE,125,4.0,6.0,63,0.00,,,0.00,LWC2 V0.39 B123,2013-04-02 04:04:00,
2013-04-01 22:09:00,44.3,32.5,30.15,ENE,67,8.0,13.0,63,0.00,,,0.00,LWC2 V0.39 B123,2013-04-02 04:09:00,
2013-04-01 22:14:00,44.3,32.1,30.15,East,94,8.0,12.0,62,0.00,,,0.00,LWC2 V0.39 B123,2013-04-02 04:14:00,
2013-04-01 22:19:00,44.3,32.9,30.16,ENE,70,8.0,8.0,64,0.00,,,0.00,LWC2 V0.39 B123,2013-04-02 04:19:00,
2013-04-01 22:24:00,44.4,32.6,30.15,SE,142,13.0,18.0,63,0.00,,,0.00,LWC2 V0.39 B123,2013-04-02 04:24:00,
2013-04-01 22:29:00,44.3,32.1,30.15,East,96,5.0,11.0,62,0.00,,,0.00,LWC2 V0.39 B123,2013-04-02 04:29:00,
2013-04-01 22:35:00,44.2,32.0,30.16,ENE,64,10.0,10.0,62,0.00,,,0.00,LWC2 V0.39 B123,2013-04-02 04:35:00,
2013-04-01 22:40:00,44.2,32.0,30.16,East,82,5.0,9.0,62,0.00,,,0.00,LWC2 V0.39 B123,2013-04-02 04:40:00,
2013-04-01 22:46:00,44.2,31.6,30.16,ENE,76,5.0,10.0,61,0.00,,,0.00,LWC2 V0.39 B123,2013-04-02 04:46:00,
2013-04-01 22:51:00,44.1,31.5,30.17,ESE,102,4.0,8.0,61,0.00,,,0.00,LWC2 V0.39 B123,2013-04-02 04:51:00,
2013-04-01 22:56:00,44.1,31.5,30.17,East,94,3.0,9.0,61,0.00,,,0.00,LWC2 V0.39 B123,2013-04-02 04:56:00,
2013-04-01 23:01:00,44.1,31.9,30.17,East,100,2.0,4.0,62,0.00,,,0.00,LWC2 V0.39 B123,2013-04-02 05:01:00,
2013-04-01 23:06:00,44.1,31.9,30.17,East,87,2.0,7.0,62,0.00,,,0.00,LWC2 V0.39 B123,2013-04-02 05:06:00,
2013-04-01 23:11:00,44.1,31.5,30.17,East,82,7.0,9.0,61,0.00,,,0.00,LWC2 V0.39 B123,2013-04-02 05:11:00,
2013-04-01 23:16:00,44.1,31.9,30.17,East,79,7.0,11.0,62,0.00,,,0.00,LWC2 V0.39 B123,2013-04-02 05:16:00,
2013-04-01 23:21:00,44.1,32.3,30.17,ENE,78,6.0,7.0,63,0.00,,,0.00,LWC2 V0.39 B123,2013-04-02 05:21:00,
2013-04-01 23:27:00,44.1,31.9,30.18,East,79,8.0,9.0,62,0.00,,,0.00,LWC2 V0.39 B123,2013-04-02 05:27:00,
2013-04-01 23:33:00,44.0,32.2,30.17,ENE,72,5.0,12.0,63,0.00,,,0.00,LWC2 V0.39 B123,2013-04-02 05:33:00,
2013-04-01 23:38:00,43.8,32.0,30.18,East,79,5.0,8.0,63,0.00,,,0.00,LWC2 V0.39 B123,2013-04-02 05:38:00,
2013-04-01 23:43:00,43.7,32.3,30.17,East,87,5.0,8.0,64,0.00,,,0.00,LWC2 V0.39 B123,2013-04-02 05:43:00,
2013-04-01 23:48:00,43.5,31.8,30.18,East,84,4.0,12.0,63,0.00,,,0.00,LWC2 V0.39 B123,2013-04-02 05:48:00,
2013-04-01 23:53:00,43.5,31.8,30.18,ESE,121,4.0,12.0,63,0.00,,,0.00,LWC2 V0.39 B123,2013-04-02 05:53:00,
2013-04-01 23:58:00,43.4,32.0,30.18,ENE,75,6.0,8.0,64,0.00,,,0.00,LWC2 V0.39 B123,2013-04-02 05:58:00,